Time;durP1;ratioP1;P1;durP2;ratioP2;P2;SDS_P1;SDS_P2;PMS_P1;PMS_P2;Temp;Humidity;BMP_temperature;BMP_pressure;BME280_temperature;BME280_humidity;BME280_pressure;Samples;Min_cycle;Max_cycle;Signal;HPM_P1;HPM_P2
2022/05/11 00:01:26;;;;;;;;;;;13.80;99.90;;;;;;5026210;28;19918;-70
2022/05/11 00:03:52;;;;;;;;;;;13.80;99.90;;;;;;5027008;28;19987;-70
2022/05/11 00:06:18;;;;;;;;;;;13.70;99.90;;;;;;5027205;28;19917;-70
2022/05/11 00:08:44;;;;;;;;;;;13.70;99.90;;;;;;5027247;28;20427;-70
2022/05/11 00:11:09;;;;;;;;;;;13.60;99.90;;;;;;5032926;28;20004;-70
2022/05/11 00:13:35;;;;;;;;;;;13.70;99.90;;;;;;5024894;28;20415;-70
2022/05/11 00:16:00;;;;;;;;;;;13.70;99.90;;;;;;5032327;28;20311;-70
2022/05/11 00:18:29;;;;;;;;;;;13.80;99.90;;;;;;5034934;28;20219;-70
2022/05/11 00:20:55;;;;;;;;;;;13.80;99.90;;;;;;5034293;28;19912;-71
2022/05/11 00:23:21;;;;;;;;;;;13.80;99.90;;;;;;5016112;28;20305;-70
2022/05/11 00:25:48;;;;;;;;;;;13.80;99.90;;;;;;5028231;28;19944;-70
2022/05/11 00:28:14;;;;;;;;;;;13.80;99.90;;;;;;5033907;28;19959;-71
2022/05/11 00:30:39;;;;;;;;;;;13.70;99.90;;;;;;5027677;28;19914;-70
2022/05/11 00:33:05;;;;;;;;;;;13.70;99.90;;;;;;5023131;28;20000;-70
2022/05/11 00:35:33;;;;;;;;;;;13.70;99.90;;;;;;5029204;28;20327;-70
2022/05/11 00:37:59;;;;;;;;;;;13.70;99.90;;;;;;5027537;28;20391;-70
2022/05/11 00:40:25;;;;;;;;;;;13.60;99.90;;;;;;5031001;28;20012;-70
2022/05/11 00:42:51;;;;;;;;;;;13.70;99.90;;;;;;5037805;28;20228;-70
2022/05/11 00:45:17;;;;;;;;;;;13.70;99.90;;;;;;5028150;28;19924;-70
2022/05/11 00:47:55;;;;;;;;;;;13.70;99.90;;;;;;5032143;28;19913;-70
2022/05/11 00:50:23;;;;;;;;;;;13.70;99.90;;;;;;5038987;28;20267;-70
2022/05/11 00:52:58;;;;;;;;;;;13.70;99.90;;;;;;5031375;28;20259;-70
2022/05/11 00:55:26;;;;;;;;;;;13.70;99.90;;;;;;5032029;28;19917;-70
2022/05/11 00:58:06;;;;;;;;;;;13.70;99.90;;;;;;5054862;28;20000;-71
2022/05/11 01:00:32;;;;;;;;;;;13.70;99.90;;;;;;5033700;28;19917;-70
2022/05/11 01:03:09;;;;;;;;;;;13.70;99.90;;;;;;5035081;28;20305;-70
2022/05/11 01:05:34;;;;;;;;;;;13.60;99.90;;;;;;5032754;28;19914;-70
2022/05/11 01:08:00;;;;;;;;;;;13.60;99.90;;;;;;5037967;28;19921;-70
2022/05/11 01:10:28;;;;;;;;;;;13.60;99.90;;;;;;5029743;28;19921;-70
2022/05/11 01:12:57;;;;;;;;;;;13.60;99.90;;;;;;5026939;28;19925;-70
2022/05/11 01:15:24;;;;;;;;;;;13.60;99.90;;;;;;5031631;28;19971;-70
2022/05/11 01:17:50;;;;;;;;;;;13.70;99.90;;;;;;5037991;28;19913;-70
2022/05/11 01:20:17;;;;;;;;;;;13.70;99.90;;;;;;5036779;28;19953;-70
2022/05/11 01:22:57;;;;;;;;;;;13.60;99.90;;;;;;5025440;28;19917;-71
2022/05/11 01:25:23;;;;;;;;;;;13.60;99.90;;;;;;5032492;28;19913;-70
2022/05/11 01:27:49;;;;;;;;;;;13.60;99.90;;;;;;5034311;28;19919;-70
2022/05/11 01:30:17;;;;;;;;;;;13.60;99.90;;;;;;5031231;28;20004;-70
2022/05/11 01:32:45;;;;;;;;;;;13.60;99.90;;;;;;5038395;28;19913;-70
2022/05/11 01:35:20;;;;;;;;;;;13.50;99.90;;;;;;5033070;28;19917;-70
2022/05/11 01:37:53;;;;;;;;;;;13.50;99.90;;;;;;5067458;28;19913;-70
2022/05/11 01:40:18;;;;;;;;;;;13.50;99.90;;;;;;5032550;28;19913;-70
2022/05/11 01:42:44;;;;;;;;;;;13.60;99.90;;;;;;5032280;28;20010;-70
2022/05/11 01:45:09;;;;;;;;;;;13.60;99.90;;;;;;5050874;28;19960;-70
2022/05/11 01:47:35;;;;;;;;;;;13.60;99.90;;;;;;5034426;28;19917;-71
2022/05/11 01:50:01;;;;;;;;;;;13.50;99.90;;;;;;5036442;28;19920;-70
2022/05/11 01:52:26;;;;;;;;;;;13.50;99.90;;;;;;5062643;28;19916;-70
2022/05/11 01:54:52;;;;;;;;;;;13.50;99.90;;;;;;5057987;28;19925;-70
2022/05/11 01:57:20;;;;;;;;;;;13.40;99.90;;;;;;5029877;28;19917;-70
2022/05/11 01:59:46;;;;;;;;;;;13.40;99.90;;;;;;5033881;28;19917;-70
2022/05/11 02:02:11;;;;;;;;;;;13.50;99.90;;;;;;5027966;28;19925;-71
2022/05/11 02:10:05;;;;;;;;;;;13.50;99.90;;;;;;5036942;28;19920;-70
2022/05/11 02:12:31;;;;;;;;;;;13.50;99.90;;;;;;5032762;28;19917;-70
2022/05/11 02:14:56;;;;;;;;;;;13.50;99.90;;;;;;5029426;28;19969;-70
2022/05/11 02:17:22;;;;;;;;;;;13.40;99.90;;;;;;5029073;28;19917;-70
2022/05/11 02:19:47;;;;;;;;;;;13.40;99.90;;;;;;5033152;28;19920;-70
2022/05/11 02:22:14;;;;;;;;;;;13.40;99.90;;;;;;5065221;28;20411;-70
2022/05/11 02:24:40;;;;;;;;;;;13.40;99.90;;;;;;5029472;28;19921;-70
2022/05/11 02:27:05;;;;;;;;;;;13.50;99.90;;;;;;5033567;28;19909;-70
2022/05/11 02:29:31;;;;;;;;;;;13.50;99.90;;;;;;5063901;28;20293;-70
2022/05/11 02:31:56;;;;;;;;;;;13.50;99.90;;;;;;5022321;28;19917;-70
2022/05/11 02:37:06;;;;;;;;;;;13.50;99.90;;;;;;5027079;28;19928;-70
2022/05/11 02:39:32;;;;;;;;;;;13.50;99.90;;;;;;5034583;28;19913;-70
2022/05/11 02:41:57;;;;;;;;;;;13.50;99.90;;;;;;5030530;28;19924;-70
2022/05/11 02:44:23;;;;;;;;;;;13.40;99.90;;;;;;5036207;28;19913;-71
2022/05/11 02:46:49;;;;;;;;;;;13.40;99.90;;;;;;5035360;28;19917;-70
2022/05/11 02:49:14;;;;;;;;;;;13.40;99.90;;;;;;5026907;28;19963;-70
2022/05/11 02:51:40;;;;;;;;;;;13.40;99.90;;;;;;5029393;28;19924;-70
2022/05/11 02:54:06;;;;;;;;;;;13.30;99.90;;;;;;5035821;28;19944;-70
2022/05/11 02:56:31;;;;;;;;;;;13.30;99.90;;;;;;5034539;28;19913;-70
2022/05/11 02:58:57;;;;;;;;;;;13.30;99.90;;;;;;5028464;28;19923;-70
2022/05/11 03:01:22;;;;;;;;;;;13.30;99.90;;;;;;5035397;28;19948;-71
2022/05/11 03:03:48;;;;;;;;;;;13.30;99.90;;;;;;5035275;28;19921;-70
2022/05/11 03:06:13;;;;;;;;;;;13.40;99.90;;;;;;5025740;28;20003;-70
2022/05/11 03:08:39;;;;;;;;;;;13.30;99.90;;;;;;5035953;28;20272;-70
2022/05/11 03:11:05;;;;;;;;;;;13.40;99.90;;;;;;5031997;28;20245;-70
2022/05/11 03:13:32;;;;;;;;;;;13.40;99.90;;;;;;5025181;28;19928;-70
2022/05/11 03:15:57;;;;;;;;;;;13.40;99.90;;;;;;5034332;28;19917;-70
2022/05/11 03:18:23;;;;;;;;;;;13.40;99.90;;;;;;5033548;28;20276;-70
2022/05/11 03:20:49;;;;;;;;;;;13.40;99.90;;;;;;5028242;28;20344;-70
2022/05/11 03:23:15;;;;;;;;;;;13.40;99.90;;;;;;5035524;28;20312;-70
2022/05/11 03:25:41;;;;;;;;;;;13.40;99.90;;;;;;5036242;28;20212;-70
2022/05/11 03:28:06;;;;;;;;;;;13.40;99.90;;;;;;5060563;28;19955;-70
2022/05/11 03:30:32;;;;;;;;;;;13.40;99.90;;;;;;5036635;28;20326;-70
2022/05/11 03:35:44;;;;;;;;;;;13.40;99.90;;;;;;5031830;28;19983;-70
2022/05/11 03:38:09;;;;;;;;;;;13.40;99.90;;;;;;5065100;28;19917;-70
2022/05/11 03:40:35;;;;;;;;;;;13.40;99.90;;;;;;5032952;28;19928;-70
2022/05/11 03:43:02;;;;;;;;;;;13.40;99.90;;;;;;5030764;28;20004;-70
2022/05/11 03:45:27;;;;;;;;;;;13.40;99.90;;;;;;5035245;28;19971;-70
2022/05/11 03:47:53;;;;;;;;;;;13.40;99.90;;;;;;5057372;28;20320;-70
2022/05/11 03:50:20;;;;;;;;;;;13.40;99.90;;;;;;5021593;28;19913;-70
2022/05/11 03:52:46;;;;;;;;;;;13.40;99.90;;;;;;5035028;28;19956;-70
2022/05/11 03:55:12;;;;;;;;;;;13.40;99.90;;;;;;5033055;28;19920;-70
2022/05/11 03:57:38;;;;;;;;;;;13.40;99.90;;;;;;5031109;28;19992;-70
2022/05/11 04:00:12;;;;;;;;;;;13.40;99.90;;;;;;5034354;28;20332;-70
2022/05/11 04:02:38;;;;;;;;;;;13.40;99.90;;;;;;5034728;28;19913;-70
2022/05/11 04:05:04;;;;;;;;;;;13.40;99.90;;;;;;5026197;28;19964;-71
2022/05/11 04:07:30;;;;;;;;;;;13.40;99.90;;;;;;5029012;28;19956;-70
2022/05/11 04:09:55;;;;;;;;;;;13.40;99.90;;;;;;5027840;28;20287;-70
2022/05/11 04:12:23;;;;;;;;;;;13.40;99.90;;;;;;5034909;28;19925;-70
2022/05/11 04:14:48;;;;;;;;;;;13.40;99.90;;;;;;5034514;28;19917;-70
2022/05/11 04:17:14;;;;;;;;;;;13.40;99.90;;;;;;5031794;28;19913;-71
2022/05/11 04:19:40;;;;;;;;;;;13.40;99.90;;;;;;5059603;28;19920;-70
2022/05/11 04:22:05;;;;;;;;;;;13.40;99.90;;;;;;5031178;28;19988;-70
2022/05/11 04:24:31;;;;;;;;;;;13.40;99.90;;;;;;5029506;28;19913;-70
2022/05/11 04:26:56;;;;;;;;;;;13.40;99.90;;;;;;5026572;28;19932;-71
2022/05/11 04:29:22;;;;;;;;;;;13.40;99.90;;;;;;5027963;28;19917;-70
2022/05/11 04:31:57;;;;;;;;;;;13.40;99.90;;;;;;5026972;28;19913;-71
2022/05/11 04:34:23;;;;;;;;;;;13.40;99.90;;;;;;5028919;28;19921;-70
2022/05/11 04:36:48;;;;;;;;;;;13.50;99.90;;;;;;5026517;28;19921;-70
2022/05/11 04:39:14;;;;;;;;;;;13.40;99.90;;;;;;5027842;28;20324;-71
2022/05/11 04:41:40;;;;;;;;;;;13.40;99.90;;;;;;5030282;28;19917;-70
2022/05/11 04:44:05;;;;;;;;;;;13.50;99.90;;;;;;5027220;28;20004;-71
2022/05/11 04:46:34;;;;;;;;;;;13.50;99.90;;;;;;5025824;28;20008;-70
2022/05/11 04:51:44;;;;;;;;;;;13.50;99.90;;;;;;5026574;28;20327;-71
2022/05/11 04:54:11;;;;;;;;;;;13.60;99.90;;;;;;5020860;28;19929;-71
2022/05/11 04:56:38;;;;;;;;;;;13.70;99.90;;;;;;5023453;28;19921;-70
2022/05/11 04:59:07;;;;;;;;;;;13.70;99.90;;;;;;5009057;28;19984;-70
2022/05/11 05:01:33;;;;;;;;;;;13.80;99.90;;;;;;5031820;28;19967;-70
2022/05/11 05:03:59;;;;;;;;;;;13.80;99.90;;;;;;5029742;28;19917;-70
2022/05/11 05:06:24;;;;;;;;;;;13.80;99.90;;;;;;5022228;28;19949;-70
2022/05/11 05:08:52;;;;;;;;;;;13.90;99.90;;;;;;5023269;28;19917;-70
2022/05/11 05:11:18;;;;;;;;;;;13.90;99.90;;;;;;5026082;28;20252;-71
2022/05/11 05:13:43;;;;;;;;;;;13.90;99.90;;;;;;5028327;28;20320;-70
2022/05/11 05:16:09;;;;;;;;;;;13.90;99.90;;;;;;5025541;28;19920;-70
2022/05/11 05:18:35;;;;;;;;;;;13.90;99.90;;;;;;5028716;28;19971;-70
2022/05/11 05:21:01;;;;;;;;;;;14.00;99.90;;;;;;5027405;28;19914;-70
2022/05/11 05:23:26;;;;;;;;;;;14.00;99.90;;;;;;5057948;28;19921;-71
2022/05/11 05:25:52;;;;;;;;;;;14.10;99.90;;;;;;5034195;28;19918;-70
2022/05/11 05:31:08;;;;;;;;;;;14.20;99.90;;;;;;5029664;28;20362;-70
2022/05/11 05:33:34;;;;;;;;;;;14.30;99.90;;;;;;5031461;28;19967;-70
2022/05/11 05:36:01;;;;;;;;;;;14.30;99.90;;;;;;5031001;28;19918;-71
2022/05/11 05:38:27;;;;;;;;;;;14.30;99.90;;;;;;5034477;28;19917;-70
2022/05/11 05:40:54;;;;;;;;;;;14.30;99.90;;;;;;5037132;28;19913;-70
2022/05/11 05:43:20;;;;;;;;;;;14.30;99.90;;;;;;5030551;28;19964;-70
2022/05/11 05:45:53;;;;;;;;;;;14.40;99.90;;;;;;5037403;28;19913;-70
2022/05/11 05:48:20;;;;;;;;;;;14.40;99.90;;;;;;5036717;28;19913;-70
2022/05/11 05:50:45;;;;;;;;;;;14.50;99.90;;;;;;5034502;28;19928;-70
2022/05/11 05:53:11;;;;;;;;;;;14.50;99.90;;;;;;5035967;28;19913;-70
2022/05/11 05:55:37;;;;;;;;;;;14.50;99.90;;;;;;5033895;28;19943;-70
2022/05/11 05:58:03;;;;;;;;;;;14.50;99.90;;;;;;5036766;28;20008;-70
2022/05/11 06:00:29;;;;;;;;;;;14.60;99.90;;;;;;5036882;28;19913;-71
2022/05/11 06:02:56;;;;;;;;;;;14.80;99.90;;;;;;5035624;28;19987;-70
2022/05/11 06:05:21;;;;;;;;;;;15.00;99.90;;;;;;5029654;28;20216;-70
2022/05/11 06:07:47;;;;;;;;;;;15.20;99.90;;;;;;5026263;28;19917;-70
2022/05/11 06:10:13;;;;;;;;;;;15.40;99.90;;;;;;5033518;28;19913;-70
2022/05/11 06:12:39;;;;;;;;;;;15.50;99.90;;;;;;5034196;28;20205;-70
2022/05/11 06:15:05;;;;;;;;;;;15.50;99.90;;;;;;5034713;28;19924;-71
2022/05/11 06:17:32;;;;;;;;;;;15.40;99.90;;;;;;5032115;28;19920;-70
2022/05/11 06:19:58;;;;;;;;;;;15.40;99.90;;;;;;5033537;28;19927;-70
2022/05/11 06:22:25;;;;;;;;;;;15.40;99.90;;;;;;5035920;28;19913;-70
2022/05/11 06:24:51;;;;;;;;;;;15.30;99.90;;;;;;5034259;28;20308;-70
2022/05/11 06:27:18;;;;;;;;;;;15.30;99.90;;;;;;5033356;28;20017;-70
2022/05/11 06:29:50;;;;;;;;;;;15.20;99.90;;;;;;5034372;28;19956;-70
2022/05/11 06:32:18;;;;;;;;;;;15.40;99.90;;;;;;5033134;28;19917;-70
2022/05/11 06:34:45;;;;;;;;;;;15.50;99.90;;;;;;5034299;28;19917;-70
2022/05/11 06:37:10;;;;;;;;;;;15.60;99.90;;;;;;5034149;28;19913;-70
2022/05/11 06:39:36;;;;;;;;;;;15.70;99.90;;;;;;5034448;28;21190;-70
2022/05/11 06:42:05;;;;;;;;;;;15.70;99.90;;;;;;5033951;28;20282;-70
2022/05/11 06:44:31;;;;;;;;;;;15.80;99.90;;;;;;5032239;28;20223;-71
2022/05/11 06:46:57;;;;;;;;;;;16.00;99.90;;;;;;5032777;28;20012;-70
2022/05/11 06:49:23;;;;;;;;;;;16.10;99.90;;;;;;5035828;28;19920;-70
2022/05/11 06:51:48;;;;;;;;;;;16.30;99.90;;;;;;5036263;28;19913;-71
2022/05/11 06:59:43;;;;;;;;;;;16.30;99.90;;;;;;5030631;28;20377;-70
2022/05/11 07:02:08;;;;;;;;;;;16.20;99.90;;;;;;5030234;28;19964;-70
2022/05/11 07:04:36;;;;;;;;;;;16.20;99.90;;;;;;5034442;28;19940;-70
2022/05/11 07:07:02;;;;;;;;;;;16.20;99.90;;;;;;5032170;28;20008;-70
2022/05/11 07:09:31;;;;;;;;;;;16.30;99.90;;;;;;5034255;28;19940;-70
2022/05/11 07:14:42;;;;;;;;;;;16.60;99.90;;;;;;5034063;28;19932;-70
2022/05/11 07:17:08;;;;;;;;;;;17.00;99.90;;;;;;5023414;28;19914;-70
2022/05/11 07:19:34;;;;;;;;;;;17.30;99.90;;;;;;5034001;28;19931;-70
2022/05/11 07:22:00;;;;;;;;;;;17.40;99.90;;;;;;5033644;28;20343;-70
2022/05/11 07:24:25;;;;;;;;;;;17.60;99.90;;;;;;5032540;28;19913;-70
2022/05/11 07:26:51;;;;;;;;;;;17.90;99.90;;;;;;5032301;28;19913;-70
2022/05/11 07:29:17;;;;;;;;;;;18.40;99.90;;;;;;5064756;28;19943;-70
2022/05/11 07:31:43;;;;;;;;;;;18.80;99.90;;;;;;5032706;28;19913;-70
2022/05/11 07:34:09;;;;;;;;;;;19.20;99.90;;;;;;5031762;28;19925;-70
2022/05/11 07:36:34;;;;;;;;;;;19.50;99.90;;;;;;5031983;28;19921;-70
2022/05/11 07:39:01;;;;;;;;;;;19.60;99.90;;;;;;5033689;28;20275;-70
2022/05/11 07:41:27;;;;;;;;;;;19.40;99.90;;;;;;5033198;28;19952;-70
2022/05/11 07:43:52;;;;;;;;;;;19.00;99.90;;;;;;5031312;28;19998;-70
2022/05/11 07:46:19;;;;;;;;;;;18.60;99.90;;;;;;5061742;28;19917;-72
2022/05/11 07:48:47;;;;;;;;;;;18.30;99.90;;;;;;5033960;28;19913;-70
2022/05/11 07:51:13;;;;;;;;;;;18.40;99.90;;;;;;5029051;28;19917;-70
2022/05/11 07:53:39;;;;;;;;;;;18.30;99.90;;;;;;5033062;28;19925;-70
2022/05/11 08:01:33;;;;;;;;;;;18.80;99.90;;;;;;5027855;28;19936;-70
2022/05/11 08:03:58;;;;;;;;;;;19.30;99.90;;;;;;5030469;28;19921;-70
2022/05/11 08:06:24;;;;;;;;;;;19.50;99.90;;;;;;5029156;28;19967;-70
2022/05/11 08:08:50;;;;;;;;;;;19.60;99.90;;;;;;5025391;28;19967;-70
2022/05/11 08:11:16;;;;;;;;;;;19.60;99.90;;;;;;5025826;28;19928;-70
2022/05/11 08:13:41;;;;;;;;;;;19.80;99.90;;;;;;5030041;28;19925;-70
2022/05/11 08:16:07;;;;;;;;;;;20.10;99.90;;;;;;5016979;28;20079;-70
2022/05/11 08:18:33;;;;;;;;;;;20.40;99.90;;;;;;5032607;28;19913;-70
2022/05/11 08:20:59;;;;;;;;;;;20.50;99.90;;;;;;5031816;28;19913;-70
2022/05/11 08:23:26;;;;;;;;;;;20.70;99.90;;;;;;5061831;28;19921;-70
2022/05/11 08:25:54;;;;;;;;;;;20.70;99.20;;;;;;5054301;28;20391;-70
2022/05/11 08:28:22;;;;;;;;;;;20.90;99.20;;;;;;5062959;28;19996;-70
2022/05/11 08:33:34;;;;;;;;;;;21.00;98.40;;;;;;5031910;28;20002;-70
2022/05/11 08:36:01;;;;;;;;;;;21.20;98.00;;;;;;5032027;28;19921;-70
2022/05/11 08:38:28;;;;;;;;;;;21.10;98.50;;;;;;5029941;28;19928;-71
2022/05/11 08:41:03;;;;;;;;;;;21.40;98.00;;;;;;5032171;28;20228;-71
2022/05/11 08:43:31;;;;;;;;;;;21.40;98.20;;;;;;5029063;28;19917;-70
2022/05/11 08:46:00;;;;;;;;;;;21.60;98.70;;;;;;5028420;28;20645;-70
2022/05/11 08:48:34;;;;;;;;;;;21.60;98.10;;;;;;5058248;28;20308;-70
2022/05/11 08:51:01;;;;;;;;;;;21.90;98.40;;;;;;5031654;28;20020;-70
2022/05/11 08:53:31;;;;;;;;;;;21.90;97.90;;;;;;5032566;28;19928;-70
2022/05/11 08:55:58;;;;;;;;;;;21.90;97.70;;;;;;5031533;28;19929;-71
2022/05/11 08:58:31;;;;;;;;;;;22.10;97.90;;;;;;5030477;28;20324;-70
2022/05/11 09:00:58;;;;;;;;;;;22.10;97.30;;;;;;5030846;28;19928;-71
2022/05/11 09:03:34;;;;;;;;;;;22.10;97.50;;;;;;5031184;28;19913;-70
2022/05/11 09:06:02;;;;;;;;;;;22.20;97.80;;;;;;5031397;28;19913;-71
2022/05/11 09:08:29;;;;;;;;;;;22.40;97.60;;;;;;5034808;28;19945;-71
2022/05/11 09:10:55;;;;;;;;;;;22.30;97.40;;;;;;5037094;28;19913;-70
2022/05/11 09:13:23;;;;;;;;;;;22.30;97.10;;;;;;5037127;28;19936;-70
2022/05/11 09:15:53;;;;;;;;;;;22.20;96.80;;;;;;5037588;28;19921;-70
2022/05/11 09:18:19;;;;;;;;;;;22.30;96.80;;;;;;5059438;28;19913;-70
2022/05/11 09:20:46;;;;;;;;;;;22.20;96.40;;;;;;5033894;28;19971;-70
2022/05/11 09:23:12;;;;;;;;;;;22.30;96.50;;;;;;5065308;28;20003;-70
2022/05/11 09:25:52;;;;;;;;;;;22.30;96.70;;;;;;5036792;28;19927;-70
2022/05/11 09:28:28;;;;;;;;;;;22.50;96.40;;;;;;5035574;28;19972;-70
2022/05/11 09:31:12;;;;;;;;;;;22.60;95.90;;;;;;5030074;28;20307;-70
2022/05/11 09:33:54;;;;;;;;;;;22.70;95.80;;;;;;5034012;28;19913;-70
2022/05/11 09:36:34;;;;;;;;;;;22.70;95.00;;;;;;5029872;28;20019;-71
2022/05/11 09:39:06;;;;;;;;;;;22.70;95.20;;;;;;5037141;28;19940;-70
2022/05/11 09:41:33;;;;;;;;;;;22.70;94.70;;;;;;5036445;28;19917;-70
2022/05/11 09:43:59;;;;;;;;;;;22.90;94.90;;;;;;5035925;28;19917;-70
2022/05/11 09:46:34;;;;;;;;;;;22.60;94.60;;;;;;5037500;28;20355;-70
2022/05/11 09:49:02;;;;;;;;;;;22.60;94.30;;;;;;5065932;28;19921;-71
2022/05/11 09:51:34;;;;;;;;;;;22.60;94.20;;;;;;5034678;28;19913;-70
2022/05/11 09:54:05;;;;;;;;;;;22.60;95.10;;;;;;5037031;28;19944;-71
2022/05/11 09:56:33;;;;;;;;;;;22.90;95.30;;;;;;5029595;28;19910;-70
2022/05/11 09:59:18;;;;;;;;;;;23.20;95.70;;;;;;5030011;28;19960;-70
2022/05/11 10:01:44;;;;;;;;;;;22.70;95.00;;;;;;5035758;28;19909;-70
2022/05/11 10:04:29;;;;;;;;;;;22.30;95.60;;;;;;5061070;28;19952;-70
2022/05/11 10:06:55;;;;;;;;;;;22.60;95.10;;;;;;5024886;28;19920;-72
2022/05/11 10:09:35;;;;;;;;;;;22.70;96.30;;;;;;5033136;28;19913;-71
2022/05/11 10:12:02;;;;;;;;;;;22.80;96.00;;;;;;5033647;28;19917;-70
2022/05/11 10:22:54;;;;;;;;;;;22.50;95.40;;;;;;5034297;28;19920;-70
2022/05/11 10:25:22;;;;;;;;;;;22.40;95.90;;;;;;5031672;28;19921;-70
2022/05/11 10:27:55;;;;;;;;;;;21.40;96.80;;;;;;5033295;28;19920;-70
2022/05/11 10:30:28;;;;;;;;;;;21.50;98.10;;;;;;5035813;28;19914;-70
2022/05/11 10:33:05;;;;;;;;;;;21.80;97.30;;;;;;5035117;28;19913;-70
2022/05/11 10:35:51;;;;;;;;;;;21.60;97.50;;;;;;5032466;28;20264;-70
2022/05/11 10:38:46;;;;;;;;;;;21.30;97.90;;;;;;5026588;28;20015;-70
2022/05/11 10:41:21;;;;;;;;;;;21.60;98.10;;;;;;4949791;29;19972;-70
2022/05/11 10:44:15;;;;;;;;;;;22.00;97.70;;;;;;4950992;29;19923;-70
2022/05/11 10:46:45;;;;;;;;;;;22.50;98.00;;;;;;4901776;29;19924;-70
2022/05/11 10:49:17;;;;;;;;;;;23.00;96.80;;;;;;4952941;29;19977;-71
2022/05/11 10:52:01;;;;;;;;;;;23.30;96.00;;;;;;4947653;29;19926;-70
2022/05/11 10:54:28;;;;;;;;;;;23.60;96.70;;;;;;4948034;29;20005;-71
2022/05/11 10:56:54;;;;;;;;;;;23.90;95.40;;;;;;4933500;29;20055;-70
2022/05/11 10:59:20;;;;;;;;;;;23.80;96.00;;;;;;4930189;29;19918;-70
2022/05/11 11:02:04;;;;;;;;;;;23.60;95.70;;;;;;4945582;28;20254;-72
2022/05/11 11:04:43;;;;;;;;;;;23.20;95.50;;;;;;4942856;29;19922;-70
2022/05/11 11:07:20;;;;;;;;;;;22.80;94.70;;;;;;4929512;29;19926;-70
2022/05/11 11:10:00;;;;;;;;;;;22.60;95.80;;;;;;4955799;28;19918;-70
2022/05/11 11:12:27;;;;;;;;;;;22.30;96.60;;;;;;4963229;28;19925;-69
2022/05/11 11:14:55;;;;;;;;;;;22.70;97.30;;;;;;4965669;28;19922;-70
2022/05/11 11:17:22;;;;;;;;;;;22.80;95.50;;;;;;4992304;28;19988;-69
2022/05/11 11:19:50;;;;;;;;;;;23.10;95.70;;;;;;5030195;28;19970;-70
2022/05/11 11:22:16;;;;;;;;;;;23.20;94.20;;;;;;5029712;28;19956;-70
2022/05/11 11:24:43;;;;;;;;;;;23.50;94.00;;;;;;5028936;28;19952;-69
2022/05/11 11:27:09;;;;;;;;;;;23.50;93.00;;;;;;5030514;28;19917;-70
2022/05/11 11:29:36;;;;;;;;;;;23.60;93.40;;;;;;5029213;28;19974;-70
2022/05/11 11:32:02;;;;;;;;;;;23.90;92.60;;;;;;5028456;28;20082;-70
2022/05/11 11:34:31;;;;;;;;;;;23.80;92.70;;;;;;5030142;28;20410;-70
2022/05/11 11:36:57;;;;;;;;;;;23.70;92.00;;;;;;5029584;28;20000;-70
2022/05/11 11:39:42;;;;;;;;;;;23.80;92.60;;;;;;5050456;28;19917;-70
2022/05/11 11:42:07;;;;;;;;;;;23.80;92.10;;;;;;5027471;28;19928;-70
2022/05/11 11:44:40;;;;;;;;;;;23.50;91.50;;;;;;5027369;28;19917;-70
2022/05/11 11:47:25;;;;;;;;;;;23.40;92.50;;;;;;5027984;28;19932;-71
2022/05/11 11:49:51;;;;;;;;;;;23.40;92.10;;;;;;5028684;28;20322;-70
2022/05/11 11:52:35;;;;;;;;;;;23.10;91.70;;;;;;5029127;28;20004;-70
2022/05/11 11:55:02;;;;;;;;;;;22.90;92.00;;;;;;5028560;28;19927;-70
2022/05/11 11:57:30;;;;;;;;;;;22.90;92.20;;;;;;5027518;28;19925;-70
2022/05/11 12:00:00;;;;;;;;;;;23.00;92.50;;;;;;5024825;28;19948;-71
2022/05/11 12:02:28;;;;;;;;;;;23.10;92.90;;;;;;5027454;28;19917;-70
2022/05/11 12:04:57;;;;;;;;;;;23.30;91.20;;;;;;5019356;28;19917;-70
2022/05/11 12:15:41;;;;;;;;;;;22.50;93.00;;;;;;5028929;28;19948;-70
2022/05/11 12:18:24;;;;;;;;;;;22.40;91.70;;;;;;5028929;28;20011;-70
2022/05/11 12:20:50;;;;;;;;;;;22.10;91.30;;;;;;5025575;28;19963;-70
2022/05/11 12:23:20;;;;;;;;;;;22.10;92.50;;;;;;5029704;28;19921;-70
2022/05/11 12:25:51;;;;;;;;;;;22.00;92.10;;;;;;5025022;28;20006;-71
2022/05/11 12:28:22;;;;;;;;;;;22.10;92.90;;;;;;5011416;28;19971;-70
2022/05/11 12:30:48;;;;;;;;;;;22.50;92.70;;;;;;5030712;28;19924;-70
2022/05/11 12:33:34;;;;;;;;;;;22.60;92.10;;;;;;5028677;28;20228;-71
2022/05/11 12:36:00;;;;;;;;;;;22.50;91.00;;;;;;5028921;28;19975;-70
2022/05/11 12:38:30;;;;;;;;;;;22.30;90.60;;;;;;5028133;28;19933;-70
2022/05/11 12:40:56;;;;;;;;;;;22.30;91.70;;;;;;5028350;28;19917;-70
2022/05/11 12:43:25;;;;;;;;;;;22.50;92.10;;;;;;5034424;28;19987;-70
2022/05/11 12:45:51;;;;;;;;;;;22.60;91.00;;;;;;5035032;28;19917;-70
2022/05/11 12:48:19;;;;;;;;;;;22.60;91.10;;;;;;5034905;28;19929;-71
2022/05/11 12:50:54;;;;;;;;;;;22.70;91.40;;;;;;5034812;28;19982;-69
2022/05/11 12:53:21;;;;;;;;;;;22.60;91.60;;;;;;5034613;28;20263;-70
2022/05/11 12:55:48;;;;;;;;;;;22.70;91.00;;;;;;5035068;28;19925;-69
2022/05/11 12:58:19;;;;;;;;;;;22.50;90.90;;;;;;5034912;28;19920;-70
2022/05/11 13:00:44;;;;;;;;;;;22.40;91.30;;;;;;5035529;28;19992;-69
2022/05/11 13:03:20;;;;;;;;;;;22.60;90.30;;;;;;5034175;28;20012;-72
2022/05/11 13:05:46;;;;;;;;;;;22.60;90.70;;;;;;5026390;28;20239;-70
2022/05/11 13:08:14;;;;;;;;;;;22.70;91.50;;;;;;5036082;28;19931;-71
2022/05/11 13:10:40;;;;;;;;;;;22.90;91.90;;;;;;5025779;28;19916;-70
2022/05/11 13:13:11;;;;;;;;;;;23.10;91.90;;;;;;5034059;28;20315;-69
2022/05/11 13:15:40;;;;;;;;;;;23.20;91.70;;;;;;5035314;28;20220;-70
2022/05/11 13:18:08;;;;;;;;;;;23.10;91.90;;;;;;5036421;28;19940;-70
2022/05/11 13:20:39;;;;;;;;;;;23.10;92.50;;;;;;5037194;28;20027;-69
2022/05/11 13:23:09;;;;;;;;;;;23.10;92.30;;;;;;5034375;28;20430;-70
2022/05/11 13:25:37;;;;;;;;;;;22.60;92.50;;;;;;5036153;28;20328;-69
2022/05/11 13:28:29;;;;;;;;;;;22.50;93.00;;;;;;5036303;28;20327;-70
2022/05/11 13:31:00;;;;;;;;;;;22.50;94.00;;;;;;5033399;28;20008;-69
2022/05/11 13:33:34;;;;;;;;;;;22.30;93.60;;;;;;5032868;28;19917;-70
2022/05/11 13:36:12;;;;;;;;;;;22.50;94.40;;;;;;5035226;28;20323;-69
2022/05/11 13:38:47;;;;;;;;;;;22.40;93.60;;;;;;5037841;28;20296;-70
2022/05/11 13:41:16;;;;;;;;;;;22.30;93.60;;;;;;5037324;28;20216;-70
2022/05/11 13:43:49;;;;;;;;;;;22.20;94.20;;;;;;5036755;28;19917;-70
2022/05/11 13:48:11;;;;;;;;;;;22.60;95.10;;;;;;5036528;28;19932;-70
2022/05/11 13:49:25;;;;;;;;;;;22.90;94.40;;;;;;5021936;28;20222;-70
2022/05/11 13:51:51;;;;;;;;;;;22.50;94.60;;;;;;5021441;28;19909;-70
2022/05/11 13:54:20;;;;;;;;;;;22.30;94.40;;;;;;5032992;28;19943;-71
2022/05/11 13:56:56;;;;;;;;;;;22.30;95.10;;;;;;5027200;28;19918;-70
2022/05/11 13:59:23;;;;;;;;;;;22.40;95.40;;;;;;5023059;28;20027;-70
2022/05/11 14:01:49;;;;;;;;;;;22.40;93.80;;;;;;5025230;28;20390;-70
2022/05/11 14:04:18;;;;;;;;;;;22.40;95.00;;;;;;5033448;28;19913;-70
2022/05/11 14:06:53;;;;;;;;;;;22.60;94.40;;;;;;5037061;28;19920;-70
2022/05/11 14:09:19;;;;;;;;;;;23.00;94.70;;;;;;5038180;28;20283;-70
2022/05/11 14:11:44;;;;;;;;;;;22.90;94.40;;;;;;5032878;28;19960;-70
2022/05/11 14:14:10;;;;;;;;;;;22.70;94.40;;;;;;5017962;28;19964;-70
2022/05/11 14:16:35;;;;;;;;;;;22.70;95.10;;;;;;5035776;28;19925;-71
2022/05/11 14:19:01;;;;;;;;;;;22.80;95.60;;;;;;5037605;28;19910;-70
2022/05/11 14:21:26;;;;;;;;;;;22.80;94.70;;;;;;5024761;28;19971;-71
2022/05/11 14:23:52;;;;;;;;;;;22.60;95.50;;;;;;5015870;28;20252;-71
2022/05/11 14:26:18;;;;;;;;;;;22.40;94.80;;;;;;5014340;28;19921;-70
2022/05/11 14:28:45;;;;;;;;;;;22.20;95.50;;;;;;5014375;28;19918;-70
2022/05/11 14:31:13;;;;;;;;;;;22.00;96.00;;;;;;5052200;28;19924;-70
2022/05/11 14:33:38;;;;;;;;;;;21.90;96.60;;;;;;5014269;28;19917;-70
2022/05/11 14:36:06;;;;;;;;;;;21.90;96.30;;;;;;5015946;28;20379;-70
2022/05/11 14:38:31;;;;;;;;;;;21.80;97.00;;;;;;5014330;28;19996;-70
2022/05/11 14:40:57;;;;;;;;;;;21.70;97.00;;;;;;5014407;28;20016;-70
2022/05/11 14:43:24;;;;;;;;;;;21.90;96.90;;;;;;5013954;28;19917;-70
2022/05/11 14:45:52;;;;;;;;;;;21.90;96.90;;;;;;5017098;28;19917;-70
2022/05/11 14:48:27;;;;;;;;;;;21.60;96.80;;;;;;5021254;28;20016;-70
2022/05/11 14:50:53;;;;;;;;;;;21.10;97.00;;;;;;5014103;28;20563;-70
2022/05/11 14:53:19;;;;;;;;;;;20.80;97.70;;;;;;5013552;28;19913;-70
2022/05/11 14:55:45;;;;;;;;;;;20.60;97.80;;;;;;5015924;28;20295;-70
2022/05/11 15:03:39;;;;;;;;;;;20.40;98.60;;;;;;5013358;28;19928;-70
2022/05/11 15:06:05;;;;;;;;;;;20.30;98.30;;;;;;5055578;28;20312;-69
2022/05/11 15:08:30;;;;;;;;;;;20.10;98.60;;;;;;5021024;28;19923;-70
2022/05/11 15:13:41;;;;;;;;;;;19.80;98.70;;;;;;5017314;28;19932;-71
2022/05/11 15:16:07;;;;;;;;;;;19.60;99.40;;;;;;5028448;28;19972;-70
2022/05/11 15:18:33;;;;;;;;;;;19.40;99.90;;;;;;5025805;28;19983;-70
2022/05/11 15:20:58;;;;;;;;;;;19.30;99.50;;;;;;5015228;28;19912;-70